sensor_id;sensor_type;location;lat;lon;timestamp;P1;durP1;ratioP1;P2;durP2;ratioP2
68074;SDS011;54864;52.002;5.468;2023-02-11T00:00:26;32.33;;;10.00;;
68074;SDS011;54864;52.002;5.468;2023-02-11T00:01:28;27.30;;;10.30;;
68074;SDS011;54864;52.002;5.468;2023-02-11T00:02:31;28.52;;;10.27;;
68074;SDS011;54864;52.002;5.468;2023-02-11T00:03:33;26.58;;;11.23;;
68074;SDS011;54864;52.002;5.468;2023-02-11T00:04:35;28.58;;;10.15;;
68074;SDS011;54864;52.002;5.468;2023-02-11T00:05:35;29.70;;;9.55;;
68074;SDS011;54864;52.002;5.468;2023-02-11T00:06:37;28.80;;;9.80;;
68074;SDS011;54864;52.002;5.468;2023-02-11T00:07:38;26.15;;;9.95;;
68074;SDS011;54864;52.002;5.468;2023-02-11T00:08:40;30.17;;;11.20;;
68074;SDS011;54864;52.002;5.468;2023-02-11T00:09:40;33.10;;;10.82;;
68074;SDS011;54864;52.002;5.468;2023-02-11T00:10:43;28.58;;;10.18;;
68074;SDS011;54864;52.002;5.468;2023-02-11T00:11:45;24.92;;;9.82;;
68074;SDS011;54864;52.002;5.468;2023-02-11T00:12:47;32.13;;;10.95;;
68074;SDS011;54864;52.002;5.468;2023-02-11T00:13:48;31.93;;;10.00;;
68074;SDS011;54864;52.002;5.468;2023-02-11T00:14:50;28.45;;;10.88;;
68074;SDS011;54864;52.002;5.468;2023-02-11T00:15:50;32.88;;;10.10;;
68074;SDS011;54864;52.002;5.468;2023-02-11T00:16:52;30.92;;;11.05;;
68074;SDS011;54864;52.002;5.468;2023-02-11T00:17:53;34.60;;;9.82;;
68074;SDS011;54864;52.002;5.468;2023-02-11T00:18:55;26.75;;;9.85;;
68074;SDS011;54864;52.002;5.468;2023-02-11T00:19:56;31.20;;;11.52;;
68074;SDS011;54864;52.002;5.468;2023-02-11T00:20:57;26.58;;;9.85;;
68074;SDS011;54864;52.002;5.468;2023-02-11T00:21:58;26.45;;;10.40;;
68074;SDS011;54864;52.002;5.468;2023-02-11T00:23:01;27.65;;;10.35;;
68074;SDS011;54864;52.002;5.468;2023-02-11T00:24:02;34.88;;;10.27;;
68074;SDS011;54864;52.002;5.468;2023-02-11T00:25:05;32.92;;;10.32;;
68074;SDS011;54864;52.002;5.468;2023-02-11T00:26:11;26.60;;;9.90;;
68074;SDS011;54864;52.002;5.468;2023-02-11T00:27:14;28.15;;;10.02;;
68074;SDS011;54864;52.002;5.468;2023-02-11T00:28:14;31.10;;;10.40;;
68074;SDS011;54864;52.002;5.468;2023-02-11T00:29:16;27.42;;;10.95;;
68074;SDS011;54864;52.002;5.468;2023-02-11T00:30:17;29.27;;;10.27;;
68074;SDS011;54864;52.002;5.468;2023-02-11T00:31:20;27.77;;;11.50;;
68074;SDS011;54864;52.002;5.468;2023-02-11T00:32:21;29.83;;;10.20;;
68074;SDS011;54864;52.002;5.468;2023-02-11T00:33:23;25.40;;;10.55;;
68074;SDS011;54864;52.002;5.468;2023-02-11T00:34:24;26.52;;;10.38;;
68074;SDS011;54864;52.002;5.468;2023-02-11T00:35:25;30.23;;;10.85;;
68074;SDS011;54864;52.002;5.468;2023-02-11T00:36:27;25.30;;;10.02;;
68074;SDS011;54864;52.002;5.468;2023-02-11T00:37:29;31.23;;;10.80;;
68074;SDS011;54864;52.002;5.468;2023-02-11T00:38:30;29.08;;;10.57;;
68074;SDS011;54864;52.002;5.468;2023-02-11T00:39:32;25.40;;;10.30;;
68074;SDS011;54864;52.002;5.468;2023-02-11T00:40:33;30.30;;;10.55;;
68074;SDS011;54864;52.002;5.468;2023-02-11T00:41:39;30.88;;;10.48;;
68074;SDS011;54864;52.002;5.468;2023-02-11T00:42:40;30.48;;;10.35;;
68074;SDS011;54864;52.002;5.468;2023-02-11T00:43:41;29.05;;;10.27;;
68074;SDS011;54864;52.002;5.468;2023-02-11T00:44:43;32.05;;;10.27;;
68074;SDS011;54864;52.002;5.468;2023-02-11T00:45:43;28.23;;;9.73;;
68074;SDS011;54864;52.002;5.468;2023-02-11T00:46:45;27.10;;;10.32;;
68074;SDS011;54864;52.002;5.468;2023-02-11T00:47:46;30.87;;;9.67;;
68074;SDS011;54864;52.002;5.468;2023-02-11T00:48:48;37.22;;;10.10;;
68074;SDS011;54864;52.002;5.468;2023-02-11T00:49:50;30.60;;;10.05;;
68074;SDS011;54864;52.002;5.468;2023-02-11T00:50:52;26.65;;;10.23;;
68074;SDS011;54864;52.002;5.468;2023-02-11T00:51:53;29.65;;;10.27;;
68074;SDS011;54864;52.002;5.468;2023-02-11T00:52:54;26.92;;;10.27;;
68074;SDS011;54864;52.002;5.468;2023-02-11T00:53:55;29.02;;;9.23;;
68074;SDS011;54864;52.002;5.468;2023-02-11T00:54:57;26.02;;;8.88;;
68074;SDS011;54864;52.002;5.468;2023-02-11T00:55:58;25.23;;;9.83;;
68074;SDS011;54864;52.002;5.468;2023-02-11T00:57:01;29.38;;;9.20;;
68074;SDS011;54864;52.002;5.468;2023-02-11T00:58:02;32.70;;;10.32;;
68074;SDS011;54864;52.002;5.468;2023-02-11T00:59:03;27.87;;;10.27;;
68074;SDS011;54864;52.002;5.468;2023-02-11T01:00:05;28.63;;;9.70;;
68074;SDS011;54864;52.002;5.468;2023-02-11T01:01:07;26.90;;;9.47;;
68074;SDS011;54864;52.002;5.468;2023-02-11T01:02:08;35.27;;;10.40;;
68074;SDS011;54864;52.002;5.468;2023-02-11T01:03:10;30.90;;;10.32;;
68074;SDS011;54864;52.002;5.468;2023-02-11T01:04:10;26.88;;;9.20;;
68074;SDS011;54864;52.002;5.468;2023-02-11T01:05:12;30.48;;;10.85;;
68074;SDS011;54864;52.002;5.468;2023-02-11T01:06:13;25.60;;;9.68;;
68074;SDS011;54864;52.002;5.468;2023-02-11T01:07:15;34.40;;;9.82;;
68074;SDS011;54864;52.002;5.468;2023-02-11T01:08:15;28.92;;;9.40;;
68074;SDS011;54864;52.002;5.468;2023-02-11T01:09:17;28.23;;;9.65;;
68074;SDS011;54864;52.002;5.468;2023-02-11T01:10:20;30.13;;;9.45;;
68074;SDS011;54864;52.002;5.468;2023-02-11T01:11:21;23.85;;;9.65;;
68074;SDS011;54864;52.002;5.468;2023-02-11T01:12:24;29.00;;;9.65;;
68074;SDS011;54864;52.002;5.468;2023-02-11T01:13:26;31.80;;;10.00;;
68074;SDS011;54864;52.002;5.468;2023-02-11T01:14:27;27.08;;;8.30;;
68074;SDS011;54864;52.002;5.468;2023-02-11T01:15:28;28.33;;;9.25;;
68074;SDS011;54864;52.002;5.468;2023-02-11T01:16:29;26.73;;;8.98;;
68074;SDS011;54864;52.002;5.468;2023-02-11T01:17:31;27.17;;;9.15;;
68074;SDS011;54864;52.002;5.468;2023-02-11T01:18:32;24.67;;;8.45;;
68074;SDS011;54864;52.002;5.468;2023-02-11T01:19:36;25.25;;;8.32;;
68074;SDS011;54864;52.002;5.468;2023-02-11T01:20:37;29.73;;;9.43;;
68074;SDS011;54864;52.002;5.468;2023-02-11T01:21:39;30.20;;;8.75;;
68074;SDS011;54864;52.002;5.468;2023-02-11T01:22:40;33.65;;;8.88;;
68074;SDS011;54864;52.002;5.468;2023-02-11T01:23:41;30.33;;;8.40;;
68074;SDS011;54864;52.002;5.468;2023-02-11T01:24:43;30.73;;;9.18;;
68074;SDS011;54864;52.002;5.468;2023-02-11T01:25:44;27.80;;;8.87;;
68074;SDS011;54864;52.002;5.468;2023-02-11T01:26:46;31.75;;;8.55;;
68074;SDS011;54864;52.002;5.468;2023-02-11T01:27:49;32.25;;;9.38;;
68074;SDS011;54864;52.002;5.468;2023-02-11T01:28:50;26.27;;;8.68;;
68074;SDS011;54864;52.002;5.468;2023-02-11T01:29:51;27.08;;;8.52;;
68074;SDS011;54864;52.002;5.468;2023-02-11T01:30:52;25.08;;;8.25;;
68074;SDS011;54864;52.002;5.468;2023-02-11T01:31:54;29.50;;;8.40;;
68074;SDS011;54864;52.002;5.468;2023-02-11T01:32:55;29.90;;;8.55;;
68074;SDS011;54864;52.002;5.468;2023-02-11T01:33:56;23.48;;;8.50;;
68074;SDS011;54864;52.002;5.468;2023-02-11T01:34:57;26.87;;;8.30;;
68074;SDS011;54864;52.002;5.468;2023-02-11T01:35:59;31.33;;;8.40;;
68074;SDS011;54864;52.002;5.468;2023-02-11T01:37:01;25.83;;;8.35;;
68074;SDS011;54864;52.002;5.468;2023-02-11T01:38:03;27.50;;;8.40;;
68074;SDS011;54864;52.002;5.468;2023-02-11T01:39:04;35.17;;;8.97;;
68074;SDS011;54864;52.002;5.468;2023-02-11T01:40:10;30.02;;;7.75;;
68074;SDS011;54864;52.002;5.468;2023-02-11T01:41:13;27.45;;;9.02;;
68074;SDS011;54864;52.002;5.468;2023-02-11T01:42:15;28.17;;;7.78;;
68074;SDS011;54864;52.002;5.468;2023-02-11T01:43:19;29.13;;;7.70;;
68074;SDS011;54864;52.002;5.468;2023-02-11T01:44:25;25.00;;;7.60;;
68074;SDS011;54864;52.002;5.468;2023-02-11T01:45:41;23.67;;;7.82;;
68074;SDS011;54864;52.002;5.468;2023-02-11T01:47:09;25.65;;;7.97;;
68074;SDS011;54864;52.002;5.468;2023-02-11T01:48:10;25.92;;;7.53;;
68074;SDS011;54864;52.002;5.468;2023-02-11T01:49:16;27.95;;;8.05;;
68074;SDS011;54864;52.002;5.468;2023-02-11T01:50:21;29.05;;;8.48;;
68074;SDS011;54864;52.002;5.468;2023-02-11T01:51:23;30.60;;;8.45;;
68074;SDS011;54864;52.002;5.468;2023-02-11T01:52:28;22.05;;;8.05;;
68074;SDS011;54864;52.002;5.468;2023-02-11T01:53:33;30.77;;;8.77;;
68074;SDS011;54864;52.002;5.468;2023-02-11T01:54:56;30.98;;;8.63;;
68074;SDS011;54864;52.002;5.468;2023-02-11T01:56:18;27.17;;;8.63;;
68074;SDS011;54864;52.002;5.468;2023-02-11T01:57:40;19.17;;;7.50;;
68074;SDS011;54864;52.002;5.468;2023-02-11T01:58:47;26.27;;;8.45;;
68074;SDS011;54864;52.002;5.468;2023-02-11T02:01:10;32.08;;;9.07;;
68074;SDS011;54864;52.002;5.468;2023-02-11T02:02:16;24.83;;;8.82;;
68074;SDS011;54864;52.002;5.468;2023-02-11T02:03:20;23.65;;;7.88;;
68074;SDS011;54864;52.002;5.468;2023-02-11T02:04:24;24.20;;;7.75;;
68074;SDS011;54864;52.002;5.468;2023-02-11T02:05:31;31.53;;;8.60;;
68074;SDS011;54864;52.002;5.468;2023-02-11T02:06:36;24.50;;;9.00;;
68074;SDS011;54864;52.002;5.468;2023-02-11T02:07:44;26.88;;;7.97;;
68074;SDS011;54864;52.002;5.468;2023-02-11T02:08:52;31.02;;;7.88;;
68074;SDS011;54864;52.002;5.468;2023-02-11T02:09:57;30.10;;;8.73;;
68074;SDS011;54864;52.002;5.468;2023-02-11T02:11:02;28.23;;;7.88;;
68074;SDS011;54864;52.002;5.468;2023-02-11T02:12:05;27.92;;;8.50;;
68074;SDS011;54864;52.002;5.468;2023-02-11T02:13:05;31.80;;;8.80;;
68074;SDS011;54864;52.002;5.468;2023-02-11T02:14:08;28.15;;;8.52;;
68074;SDS011;54864;52.002;5.468;2023-02-11T02:16:29;28.33;;;7.95;;
68074;SDS011;54864;52.002;5.468;2023-02-11T02:17:34;24.70;;;8.82;;
68074;SDS011;54864;52.002;5.468;2023-02-11T02:18:46;28.23;;;8.95;;
68074;SDS011;54864;52.002;5.468;2023-02-11T02:20:08;33.03;;;8.98;;
68074;SDS011;54864;52.002;5.468;2023-02-11T02:24:43;27.95;;;9.65;;
68074;SDS011;54864;52.002;5.468;2023-02-11T02:26:05;26.65;;;8.90;;
68074;SDS011;54864;52.002;5.468;2023-02-11T02:27:30;27.85;;;9.75;;
68074;SDS011;54864;52.002;5.468;2023-02-11T02:28:43;33.90;;;9.25;;
68074;SDS011;54864;52.002;5.468;2023-02-11T02:30:13;28.35;;;9.13;;
68074;SDS011;54864;52.002;5.468;2023-02-11T02:31:34;30.40;;;8.88;;
68074;SDS011;54864;52.002;5.468;2023-02-11T02:32:54;30.52;;;9.32;;
68074;SDS011;54864;52.002;5.468;2023-02-11T02:34:05;27.05;;;9.32;;
68074;SDS011;54864;52.002;5.468;2023-02-11T02:35:15;25.02;;;8.75;;
68074;SDS011;54864;52.002;5.468;2023-02-11T02:36:27;26.85;;;8.48;;
68074;SDS011;54864;52.002;5.468;2023-02-11T02:37:37;26.42;;;8.98;;
68074;SDS011;54864;52.002;5.468;2023-02-11T02:38:47;26.80;;;8.65;;
68074;SDS011;54864;52.002;5.468;2023-02-11T02:39:53;26.30;;;9.25;;
68074;SDS011;54864;52.002;5.468;2023-02-11T02:40:58;22.93;;;9.10;;
68074;SDS011;54864;52.002;5.468;2023-02-11T02:42:03;31.63;;;9.43;;
68074;SDS011;54864;52.002;5.468;2023-02-11T02:43:05;29.73;;;8.45;;
68074;SDS011;54864;52.002;5.468;2023-02-11T02:44:09;25.02;;;9.00;;
68074;SDS011;54864;52.002;5.468;2023-02-11T02:45:10;24.40;;;9.18;;
68074;SDS011;54864;52.002;5.468;2023-02-11T02:46:13;27.05;;;9.15;;
68074;SDS011;54864;52.002;5.468;2023-02-11T02:47:16;31.88;;;9.25;;
68074;SDS011;54864;52.002;5.468;2023-02-11T02:48:26;30.13;;;9.18;;
68074;SDS011;54864;52.002;5.468;2023-02-11T02:49:29;28.17;;;9.52;;
68074;SDS011;54864;52.002;5.468;2023-02-11T02:50:30;32.28;;;9.43;;
68074;SDS011;54864;52.002;5.468;2023-02-11T02:51:41;28.02;;;10.00;;
68074;SDS011;54864;52.002;5.468;2023-02-11T02:52:53;25.67;;;9.48;;
68074;SDS011;54864;52.002;5.468;2023-02-11T02:54:10;29.65;;;9.75;;
68074;SDS011;54864;52.002;5.468;2023-02-11T02:56:56;27.45;;;9.10;;
68074;SDS011;54864;52.002;5.468;2023-02-11T02:58:28;27.50;;;9.77;;
68074;SDS011;54864;52.002;5.468;2023-02-11T02:59:46;26.30;;;9.63;;
68074;SDS011;54864;52.002;5.468;2023-02-11T03:01:00;38.90;;;9.65;;
68074;SDS011;54864;52.002;5.468;2023-02-11T03:02:09;28.05;;;10.23;;
68074;SDS011;54864;52.002;5.468;2023-02-11T03:03:16;35.97;;;11.13;;
68074;SDS011;54864;52.002;5.468;2023-02-11T03:04:30;30.67;;;11.43;;
68074;SDS011;54864;52.002;5.468;2023-02-11T03:05:39;28.65;;;9.45;;
68074;SDS011;54864;52.002;5.468;2023-02-11T03:06:51;27.80;;;9.88;;
68074;SDS011;54864;52.002;5.468;2023-02-11T03:07:57;32.13;;;10.13;;
68074;SDS011;54864;52.002;5.468;2023-02-11T03:09:08;25.27;;;10.05;;
68074;SDS011;54864;52.002;5.468;2023-02-11T03:10:16;26.02;;;10.45;;
68074;SDS011;54864;52.002;5.468;2023-02-11T03:11:21;30.40;;;11.15;;
68074;SDS011;54864;52.002;5.468;2023-02-11T03:12:24;30.13;;;11.10;;
68074;SDS011;54864;52.002;5.468;2023-02-11T03:13:31;28.27;;;11.27;;
68074;SDS011;54864;52.002;5.468;2023-02-11T03:14:34;27.48;;;11.05;;
68074;SDS011;54864;52.002;5.468;2023-02-11T03:15:37;32.10;;;10.98;;
68074;SDS011;54864;52.002;5.468;2023-02-11T03:16:40;30.60;;;10.77;;
68074;SDS011;54864;52.002;5.468;2023-02-11T03:17:44;29.45;;;10.35;;
68074;SDS011;54864;52.002;5.468;2023-02-11T03:18:49;34.20;;;10.63;;
68074;SDS011;54864;52.002;5.468;2023-02-11T03:19:58;27.42;;;10.05;;
68074;SDS011;54864;52.002;5.468;2023-02-11T03:21:01;29.70;;;9.98;;
68074;SDS011;54864;52.002;5.468;2023-02-11T03:22:06;25.08;;;10.30;;
68074;SDS011;54864;52.002;5.468;2023-02-11T03:23:11;27.05;;;10.43;;
68074;SDS011;54864;52.002;5.468;2023-02-11T03:24:19;26.20;;;10.25;;
68074;SDS011;54864;52.002;5.468;2023-02-11T03:25:25;26.08;;;10.82;;
68074;SDS011;54864;52.002;5.468;2023-02-11T03:26:31;31.70;;;10.85;;
68074;SDS011;54864;52.002;5.468;2023-02-11T03:27:40;25.90;;;10.93;;
68074;SDS011;54864;52.002;5.468;2023-02-11T03:28:48;30.63;;;10.85;;
68074;SDS011;54864;52.002;5.468;2023-02-11T03:29:56;30.83;;;11.70;;
68074;SDS011;54864;52.002;5.468;2023-02-11T03:31:07;36.03;;;11.35;;
68074;SDS011;54864;52.002;5.468;2023-02-11T03:32:13;26.60;;;10.85;;
68074;SDS011;54864;52.002;5.468;2023-02-11T03:33:19;31.25;;;10.75;;
68074;SDS011;54864;52.002;5.468;2023-02-11T03:34:28;30.55;;;11.43;;
68074;SDS011;54864;52.002;5.468;2023-02-11T03:35:38;33.85;;;10.73;;
68074;SDS011;54864;52.002;5.468;2023-02-11T03:36:43;26.55;;;11.27;;
68074;SDS011;54864;52.002;5.468;2023-02-11T03:37:49;28.15;;;11.15;;
68074;SDS011;54864;52.002;5.468;2023-02-11T03:38:52;28.50;;;11.25;;
68074;SDS011;54864;52.002;5.468;2023-02-11T03:39:59;28.15;;;11.95;;
68074;SDS011;54864;52.002;5.468;2023-02-11T03:41:03;31.25;;;11.88;;
68074;SDS011;54864;52.002;5.468;2023-02-11T03:42:07;30.40;;;11.77;;
68074;SDS011;54864;52.002;5.468;2023-02-11T03:43:12;33.25;;;12.15;;
68074;SDS011;54864;52.002;5.468;2023-02-11T03:44:18;27.73;;;11.85;;
68074;SDS011;54864;52.002;5.468;2023-02-11T03:45:21;31.63;;;11.60;;
68074;SDS011;54864;52.002;5.468;2023-02-11T03:46:26;32.00;;;13.15;;
68074;SDS011;54864;52.002;5.468;2023-02-11T03:47:29;26.45;;;11.75;;
68074;SDS011;54864;52.002;5.468;2023-02-11T03:48:36;31.15;;;12.13;;
68074;SDS011;54864;52.002;5.468;2023-02-11T03:49:39;31.08;;;12.45;;
68074;SDS011;54864;52.002;5.468;2023-02-11T03:50:45;34.03;;;12.40;;
68074;SDS011;54864;52.002;5.468;2023-02-11T03:51:49;34.53;;;12.50;;
68074;SDS011;54864;52.002;5.468;2023-02-11T03:52:53;34.35;;;13.27;;
68074;SDS011;54864;52.002;5.468;2023-02-11T03:53:57;34.38;;;12.48;;
68074;SDS011;54864;52.002;5.468;2023-02-11T03:55:02;29.45;;;12.40;;
68074;SDS011;54864;52.002;5.468;2023-02-11T03:56:08;35.42;;;12.50;;
68074;SDS011;54864;52.002;5.468;2023-02-11T03:57:14;29.75;;;12.25;;
68074;SDS011;54864;52.002;5.468;2023-02-11T03:58:15;30.48;;;12.40;;
68074;SDS011;54864;52.002;5.468;2023-02-11T03:59:17;32.58;;;13.05;;
68074;SDS011;54864;52.002;5.468;2023-02-11T04:00:18;33.78;;;12.38;;
68074;SDS011;54864;52.002;5.468;2023-02-11T04:01:20;28.88;;;12.40;;
68074;SDS011;54864;52.002;5.468;2023-02-11T04:02:21;30.35;;;13.18;;
68074;SDS011;54864;52.002;5.468;2023-02-11T04:03:25;32.03;;;13.32;;
68074;SDS011;54864;52.002;5.468;2023-02-11T04:04:26;27.63;;;12.55;;
68074;SDS011;54864;52.002;5.468;2023-02-11T04:05:27;31.95;;;12.50;;
68074;SDS011;54864;52.002;5.468;2023-02-11T04:06:30;31.42;;;13.32;;
68074;SDS011;54864;52.002;5.468;2023-02-11T04:07:32;27.77;;;11.98;;
68074;SDS011;54864;52.002;5.468;2023-02-11T04:08:33;38.25;;;13.35;;
68074;SDS011;54864;52.002;5.468;2023-02-11T04:09:35;34.35;;;13.10;;
68074;SDS011;54864;52.002;5.468;2023-02-11T04:10:36;33.50;;;13.40;;
68074;SDS011;54864;52.002;5.468;2023-02-11T04:11:38;29.08;;;13.05;;
68074;SDS011;54864;52.002;5.468;2023-02-11T04:12:38;31.27;;;12.63;;
68074;SDS011;54864;52.002;5.468;2023-02-11T04:13:40;32.97;;;12.80;;
68074;SDS011;54864;52.002;5.468;2023-02-11T04:14:41;35.87;;;13.63;;
68074;SDS011;54864;52.002;5.468;2023-02-11T04:15:42;32.08;;;13.50;;
68074;SDS011;54864;52.002;5.468;2023-02-11T04:16:43;34.92;;;13.15;;
68074;SDS011;54864;52.002;5.468;2023-02-11T04:17:45;29.92;;;12.95;;
68074;SDS011;54864;52.002;5.468;2023-02-11T04:18:45;31.80;;;12.47;;
68074;SDS011;54864;52.002;5.468;2023-02-11T04:19:47;34.78;;;13.05;;
68074;SDS011;54864;52.002;5.468;2023-02-11T04:20:48;29.40;;;13.23;;
68074;SDS011;54864;52.002;5.468;2023-02-11T04:21:52;35.35;;;14.45;;
68074;SDS011;54864;52.002;5.468;2023-02-11T04:22:53;36.13;;;14.48;;
68074;SDS011;54864;52.002;5.468;2023-02-11T04:23:54;36.78;;;13.18;;
68074;SDS011;54864;52.002;5.468;2023-02-11T04:24:55;34.90;;;14.35;;
68074;SDS011;54864;52.002;5.468;2023-02-11T04:25:57;37.70;;;14.20;;
68074;SDS011;54864;52.002;5.468;2023-02-11T04:26:58;29.40;;;13.30;;
68074;SDS011;54864;52.002;5.468;2023-02-11T04:27:59;29.88;;;13.30;;
68074;SDS011;54864;52.002;5.468;2023-02-11T04:29:00;35.73;;;13.27;;
68074;SDS011;54864;52.002;5.468;2023-02-11T04:30:02;29.40;;;14.52;;
68074;SDS011;54864;52.002;5.468;2023-02-11T04:31:03;35.58;;;14.57;;
68074;SDS011;54864;52.002;5.468;2023-02-11T04:32:05;34.33;;;14.52;;
68074;SDS011;54864;52.002;5.468;2023-02-11T04:33:06;29.58;;;14.60;;
68074;SDS011;54864;52.002;5.468;2023-02-11T04:34:08;39.45;;;14.52;;
68074;SDS011;54864;52.002;5.468;2023-02-11T04:35:09;32.70;;;14.73;;
68074;SDS011;54864;52.002;5.468;2023-02-11T04:36:10;33.65;;;14.50;;
68074;SDS011;54864;52.002;5.468;2023-02-11T04:37:16;39.60;;;14.80;;
68074;SDS011;54864;52.002;5.468;2023-02-11T04:38:17;35.87;;;15.67;;
68074;SDS011;54864;52.002;5.468;2023-02-11T04:39:19;39.72;;;14.85;;
68074;SDS011;54864;52.002;5.468;2023-02-11T04:40:19;35.10;;;15.18;;
68074;SDS011;54864;52.002;5.468;2023-02-11T04:41:21;32.05;;;15.40;;
68074;SDS011;54864;52.002;5.468;2023-02-11T04:42:22;31.57;;;14.37;;
68074;SDS011;54864;52.002;5.468;2023-02-11T04:43:24;37.17;;;15.13;;
68074;SDS011;54864;52.002;5.468;2023-02-11T04:44:24;35.20;;;15.27;;
68074;SDS011;54864;52.002;5.468;2023-02-11T04:45:26;32.13;;;14.13;;
68074;SDS011;54864;52.002;5.468;2023-02-11T04:46:27;33.23;;;14.70;;
68074;SDS011;54864;52.002;5.468;2023-02-11T04:47:28;29.52;;;13.50;;
68074;SDS011;54864;52.002;5.468;2023-02-11T04:48:29;39.78;;;14.77;;
68074;SDS011;54864;52.002;5.468;2023-02-11T04:49:31;34.03;;;15.20;;
68074;SDS011;54864;52.002;5.468;2023-02-11T04:50:31;29.97;;;14.77;;
68074;SDS011;54864;52.002;5.468;2023-02-11T04:51:33;35.20;;;14.95;;
68074;SDS011;54864;52.002;5.468;2023-02-11T04:52:35;43.05;;;15.13;;
68074;SDS011;54864;52.002;5.468;2023-02-11T04:53:37;36.05;;;15.40;;
68074;SDS011;54864;52.002;5.468;2023-02-11T04:54:38;34.00;;;15.00;;
68074;SDS011;54864;52.002;5.468;2023-02-11T04:55:40;34.63;;;15.20;;
68074;SDS011;54864;52.002;5.468;2023-02-11T04:56:40;36.13;;;14.67;;
68074;SDS011;54864;52.002;5.468;2023-02-11T04:57:42;31.55;;;14.70;;
68074;SDS011;54864;52.002;5.468;2023-02-11T04:58:43;31.35;;;14.73;;
68074;SDS011;54864;52.002;5.468;2023-02-11T04:59:45;30.92;;;16.23;;
68074;SDS011;54864;52.002;5.468;2023-02-11T05:00:46;36.20;;;15.23;;
68074;SDS011;54864;52.002;5.468;2023-02-11T05:01:47;34.28;;;15.13;;
68074;SDS011;54864;52.002;5.468;2023-02-11T05:02:49;34.63;;;15.05;;
68074;SDS011;54864;52.002;5.468;2023-02-11T05:03:50;32.42;;;14.68;;
68074;SDS011;54864;52.002;5.468;2023-02-11T05:04:51;35.30;;;14.75;;
68074;SDS011;54864;52.002;5.468;2023-02-11T05:05:53;31.55;;;14.68;;
68074;SDS011;54864;52.002;5.468;2023-02-11T05:06:54;30.20;;;14.18;;
68074;SDS011;54864;52.002;5.468;2023-02-11T05:07:57;32.13;;;15.32;;
68074;SDS011;54864;52.002;5.468;2023-02-11T05:08:58;28.98;;;15.07;;
68074;SDS011;54864;52.002;5.468;2023-02-11T05:10:00;31.80;;;15.27;;
68074;SDS011;54864;52.002;5.468;2023-02-11T05:11:00;39.78;;;15.98;;
68074;SDS011;54864;52.002;5.468;2023-02-11T05:12:02;37.30;;;15.63;;
68074;SDS011;54864;52.002;5.468;2023-02-11T05:13:03;38.45;;;16.30;;
68074;SDS011;54864;52.002;5.468;2023-02-11T05:14:05;31.73;;;16.00;;
68074;SDS011;54864;52.002;5.468;2023-02-11T05:15:06;41.45;;;15.77;;
68074;SDS011;54864;52.002;5.468;2023-02-11T05:16:08;37.08;;;15.70;;
68074;SDS011;54864;52.002;5.468;2023-02-11T05:17:09;39.75;;;15.98;;
68074;SDS011;54864;52.002;5.468;2023-02-11T05:18:11;35.67;;;15.02;;
68074;SDS011;54864;52.002;5.468;2023-02-11T05:19:13;36.97;;;15.80;;
68074;SDS011;54864;52.002;5.468;2023-02-11T05:20:15;35.72;;;15.80;;
68074;SDS011;54864;52.002;5.468;2023-02-11T05:21:17;36.67;;;16.17;;
68074;SDS011;54864;52.002;5.468;2023-02-11T05:22:19;34.55;;;15.50;;
68074;SDS011;54864;52.002;5.468;2023-02-11T05:23:22;39.03;;;17.08;;
68074;SDS011;54864;52.002;5.468;2023-02-11T05:24:24;41.25;;;16.63;;
68074;SDS011;54864;52.002;5.468;2023-02-11T05:25:24;34.88;;;15.35;;
68074;SDS011;54864;52.002;5.468;2023-02-11T05:26:26;35.00;;;16.33;;
68074;SDS011;54864;52.002;5.468;2023-02-11T05:27:27;39.00;;;16.30;;
68074;SDS011;54864;52.002;5.468;2023-02-11T05:28:28;37.25;;;16.15;;
68074;SDS011;54864;52.002;5.468;2023-02-11T05:29:29;34.40;;;16.23;;
68074;SDS011;54864;52.002;5.468;2023-02-11T05:30:31;37.38;;;15.95;;
68074;SDS011;54864;52.002;5.468;2023-02-11T05:31:32;33.17;;;16.83;;
68074;SDS011;54864;52.002;5.468;2023-02-11T05:32:34;39.28;;;17.35;;
68074;SDS011;54864;52.002;5.468;2023-02-11T05:33:34;32.13;;;16.23;;
68074;SDS011;54864;52.002;5.468;2023-02-11T05:34:36;35.08;;;16.55;;
68074;SDS011;54864;52.002;5.468;2023-02-11T05:35:37;32.80;;;16.10;;
68074;SDS011;54864;52.002;5.468;2023-02-11T05:36:38;36.03;;;17.77;;
68074;SDS011;54864;52.002;5.468;2023-02-11T05:37:41;37.75;;;17.23;;
68074;SDS011;54864;52.002;5.468;2023-02-11T05:38:44;33.83;;;16.13;;
68074;SDS011;54864;52.002;5.468;2023-02-11T05:39:45;30.02;;;15.85;;
68074;SDS011;54864;52.002;5.468;2023-02-11T05:40:47;37.42;;;17.23;;
68074;SDS011;54864;52.002;5.468;2023-02-11T05:41:47;43.03;;;17.10;;
68074;SDS011;54864;52.002;5.468;2023-02-11T05:42:52;39.22;;;17.40;;
68074;SDS011;54864;52.002;5.468;2023-02-11T05:43:53;35.25;;;17.00;;
68074;SDS011;54864;52.002;5.468;2023-02-11T05:44:54;33.47;;;16.27;;
68074;SDS011;54864;52.002;5.468;2023-02-11T05:45:55;36.58;;;17.65;;
68074;SDS011;54864;52.002;5.468;2023-02-11T05:46:57;35.10;;;17.83;;
68074;SDS011;54864;52.002;5.468;2023-02-11T05:48:00;36.20;;;17.98;;
68074;SDS011;54864;52.002;5.468;2023-02-11T05:49:02;42.88;;;18.55;;
68074;SDS011;54864;52.002;5.468;2023-02-11T05:50:03;39.67;;;17.40;;
68074;SDS011;54864;52.002;5.468;2023-02-11T05:51:05;45.47;;;17.95;;
68074;SDS011;54864;52.002;5.468;2023-02-11T05:52:06;38.20;;;17.60;;
68074;SDS011;54864;52.002;5.468;2023-02-11T05:53:08;36.38;;;18.00;;
68074;SDS011;54864;52.002;5.468;2023-02-11T05:54:10;42.15;;;18.17;;
68074;SDS011;54864;52.002;5.468;2023-02-11T05:55:11;38.13;;;17.63;;
68074;SDS011;54864;52.002;5.468;2023-02-11T05:56:12;37.25;;;18.25;;
68074;SDS011;54864;52.002;5.468;2023-02-11T05:57:14;45.83;;;18.33;;
68074;SDS011;54864;52.002;5.468;2023-02-11T05:58:17;42.03;;;17.70;;
68074;SDS011;54864;52.002;5.468;2023-02-11T05:59:19;36.00;;;18.38;;
68074;SDS011;54864;52.002;5.468;2023-02-11T06:00:19;44.63;;;18.20;;
68074;SDS011;54864;52.002;5.468;2023-02-11T06:01:21;38.05;;;18.80;;
68074;SDS011;54864;52.002;5.468;2023-02-11T06:02:22;41.33;;;17.52;;
68074;SDS011;54864;52.002;5.468;2023-02-11T06:03:24;38.90;;;18.42;;
68074;SDS011;54864;52.002;5.468;2023-02-11T06:04:24;32.08;;;17.88;;
68074;SDS011;54864;52.002;5.468;2023-02-11T06:05:26;41.22;;;18.30;;
68074;SDS011;54864;52.002;5.468;2023-02-11T06:06:27;34.50;;;18.17;;
68074;SDS011;54864;52.002;5.468;2023-02-11T06:07:28;36.67;;;18.88;;
68074;SDS011;54864;52.002;5.468;2023-02-11T06:08:29;32.45;;;17.73;;
68074;SDS011;54864;52.002;5.468;2023-02-11T06:09:35;39.70;;;18.25;;
68074;SDS011;54864;52.002;5.468;2023-02-11T06:10:38;33.50;;;17.30;;
68074;SDS011;54864;52.002;5.468;2023-02-11T06:11:41;33.08;;;17.90;;
68074;SDS011;54864;52.002;5.468;2023-02-11T06:12:42;36.67;;;17.23;;
68074;SDS011;54864;52.002;5.468;2023-02-11T06:13:44;42.60;;;19.02;;
68074;SDS011;54864;52.002;5.468;2023-02-11T06:14:45;37.95;;;18.92;;
68074;SDS011;54864;52.002;5.468;2023-02-11T06:15:54;38.38;;;20.13;;
68074;SDS011;54864;52.002;5.468;2023-02-11T06:16:55;36.15;;;19.42;;
68074;SDS011;54864;52.002;5.468;2023-02-11T06:17:57;43.58;;;19.38;;
68074;SDS011;54864;52.002;5.468;2023-02-11T06:18:57;34.53;;;18.27;;
68074;SDS011;54864;52.002;5.468;2023-02-11T06:19:59;41.25;;;18.65;;
68074;SDS011;54864;52.002;5.468;2023-02-11T06:21:05;37.78;;;18.88;;
68074;SDS011;54864;52.002;5.468;2023-02-11T06:22:07;33.88;;;18.98;;